sensor_id;sensor_type;location;lat;lon;timestamp;temperature;humidity
59651;DHT22;45954;49.768;8.636;2022-11-20T00:01:19;5.40;99.90
59651;DHT22;45954;49.768;8.636;2022-11-20T00:03:46;5.60;99.90
59651;DHT22;45954;49.768;8.636;2022-11-20T00:06:15;5.60;99.90
59651;DHT22;45954;49.768;8.636;2022-11-20T00:08:44;5.70;99.90
59651;DHT22;45954;49.768;8.636;2022-11-20T00:11:13;5.70;99.90
59651;DHT22;45954;49.768;8.636;2022-11-20T00:13:40;5.70;99.90
59651;DHT22;45954;49.768;8.636;2022-11-20T00:16:09;5.40;99.90
59651;DHT22;45954;49.768;8.636;2022-11-20T00:18:36;5.40;99.90
59651;DHT22;45954;49.768;8.636;2022-11-20T00:21:04;5.60;99.90
59651;DHT22;45954;49.768;8.636;2022-11-20T00:23:31;5.70;99.90
59651;DHT22;45954;49.768;8.636;2022-11-20T00:26:05;5.50;99.90
59651;DHT22;45954;49.768;8.636;2022-11-20T00:28:32;5.50;99.90
59651;DHT22;45954;49.768;8.636;2022-11-20T00:31:09;5.40;99.90
59651;DHT22;45954;49.768;8.636;2022-11-20T00:33:37;5.20;99.90
59651;DHT22;45954;49.768;8.636;2022-11-20T00:36:12;5.40;99.90
59651;DHT22;45954;49.768;8.636;2022-11-20T00:38:40;5.30;99.90
59651;DHT22;45954;49.768;8.636;2022-11-20T00:41:08;4.90;99.90
59651;DHT22;45954;49.768;8.636;2022-11-20T00:43:36;4.70;99.90
59651;DHT22;45954;49.768;8.636;2022-11-20T00:46:05;4.50;99.90
59651;DHT22;45954;49.768;8.636;2022-11-20T00:48:33;4.50;99.90
59651;DHT22;45954;49.768;8.636;2022-11-20T00:50:59;4.70;99.90
59651;DHT22;45954;49.768;8.636;2022-11-20T00:53:25;5.00;99.90
59651;DHT22;45954;49.768;8.636;2022-11-20T00:56:00;5.20;99.90
59651;DHT22;45954;49.768;8.636;2022-11-20T00:58:36;5.40;99.90
59651;DHT22;45954;49.768;8.636;2022-11-20T01:01:08;5.30;99.90
59651;DHT22;45954;49.768;8.636;2022-11-20T01:03:45;5.00;99.90
59651;DHT22;45954;49.768;8.636;2022-11-20T01:06:24;4.80;99.90
59651;DHT22;45954;49.768;8.636;2022-11-20T01:08:54;4.40;99.90
59651;DHT22;45954;49.768;8.636;2022-11-20T01:11:33;4.40;99.90
59651;DHT22;45954;49.768;8.636;2022-11-20T01:14:04;4.60;99.90
59651;DHT22;45954;49.768;8.636;2022-11-20T01:16:35;4.70;99.90
59651;DHT22;45954;49.768;8.636;2022-11-20T01:19:05;4.80;99.90
59651;DHT22;45954;49.768;8.636;2022-11-20T01:21:35;5.00;99.90
59651;DHT22;45954;49.768;8.636;2022-11-20T01:24:04;4.90;99.90
59651;DHT22;45954;49.768;8.636;2022-11-20T01:26:33;4.50;99.90
59651;DHT22;45954;49.768;8.636;2022-11-20T01:29:02;4.40;99.90
59651;DHT22;45954;49.768;8.636;2022-11-20T01:31:34;4.50;99.90
59651;DHT22;45954;49.768;8.636;2022-11-20T01:34:06;4.60;99.90
59651;DHT22;45954;49.768;8.636;2022-11-20T01:36:36;4.50;99.90
59651;DHT22;45954;49.768;8.636;2022-11-20T01:39:06;4.70;99.90
59651;DHT22;45954;49.768;8.636;2022-11-20T01:41:35;4.60;99.90
59651;DHT22;45954;49.768;8.636;2022-11-20T01:44:22;4.80;99.90
59651;DHT22;45954;49.768;8.636;2022-11-20T01:47:12;4.80;99.90
59651;DHT22;45954;49.768;8.636;2022-11-20T01:49:56;5.00;99.90
59651;DHT22;45954;49.768;8.636;2022-11-20T01:52:55;5.20;99.90
59651;DHT22;45954;49.768;8.636;2022-11-20T01:55:30;5.20;99.90
59651;DHT22;45954;49.768;8.636;2022-11-20T01:57:58;5.30;99.90
59651;DHT22;45954;49.768;8.636;2022-11-20T02:00:25;5.10;99.90
59651;DHT22;45954;49.768;8.636;2022-11-20T02:02:58;5.00;99.90
59651;DHT22;45954;49.768;8.636;2022-11-20T02:08:21;5.10;99.90
59651;DHT22;45954;49.768;8.636;2022-11-20T02:10:48;5.30;99.90
59651;DHT22;45954;49.768;8.636;2022-11-20T02:13:15;5.30;99.90
59651;DHT22;45954;49.768;8.636;2022-11-20T02:16:01;5.40;99.90
59651;DHT22;45954;49.768;8.636;2022-11-20T02:18:28;5.30;99.90
59651;DHT22;45954;49.768;8.636;2022-11-20T02:21:17;5.30;99.90
59651;DHT22;45954;49.768;8.636;2022-11-20T02:26:45;5.30;99.90
59651;DHT22;45954;49.768;8.636;2022-11-20T02:29:17;5.10;99.90
59651;DHT22;45954;49.768;8.636;2022-11-20T02:31:47;4.70;99.90
59651;DHT22;45954;49.768;8.636;2022-11-20T02:34:13;4.50;99.90
59651;DHT22;45954;49.768;8.636;2022-11-20T02:36:42;4.40;99.90
59651;DHT22;45954;49.768;8.636;2022-11-20T02:39:10;4.60;99.90
59651;DHT22;45954;49.768;8.636;2022-11-20T02:41:38;4.50;99.90
59651;DHT22;45954;49.768;8.636;2022-11-20T02:44:05;4.50;99.90
59651;DHT22;45954;49.768;8.636;2022-11-20T02:46:32;4.70;99.90
59651;DHT22;45954;49.768;8.636;2022-11-20T02:48:58;4.90;99.90
59651;DHT22;45954;49.768;8.636;2022-11-20T02:51:24;5.10;99.90
59651;DHT22;45954;49.768;8.636;2022-11-20T02:53:50;4.70;99.90
59651;DHT22;45954;49.768;8.636;2022-11-20T02:56:16;4.50;99.90
59651;DHT22;45954;49.768;8.636;2022-11-20T02:58:42;4.50;99.90
59651;DHT22;45954;49.768;8.636;2022-11-20T03:01:08;4.30;99.90
59651;DHT22;45954;49.768;8.636;2022-11-20T03:03:33;4.50;99.90
59651;DHT22;45954;49.768;8.636;2022-11-20T03:06:00;4.70;99.90
59651;DHT22;45954;49.768;8.636;2022-11-20T03:08:26;4.80;99.90
59651;DHT22;45954;49.768;8.636;2022-11-20T03:10:52;4.90;99.90
59651;DHT22;45954;49.768;8.636;2022-11-20T03:13:18;4.90;99.90
59651;DHT22;45954;49.768;8.636;2022-11-20T03:15:43;4.80;99.90
59651;DHT22;45954;49.768;8.636;2022-11-20T03:18:09;4.50;99.90
59651;DHT22;45954;49.768;8.636;2022-11-20T03:20:35;4.40;99.90
59651;DHT22;45954;49.768;8.636;2022-11-20T03:23:02;4.40;99.90
59651;DHT22;45954;49.768;8.636;2022-11-20T03:25:28;4.40;99.90
59651;DHT22;45954;49.768;8.636;2022-11-20T03:27:54;4.30;99.90
59651;DHT22;45954;49.768;8.636;2022-11-20T03:30:20;4.60;99.90
59651;DHT22;45954;49.768;8.636;2022-11-20T03:32:46;4.60;99.90
59651;DHT22;45954;49.768;8.636;2022-11-20T03:35:12;4.30;99.90
59651;DHT22;45954;49.768;8.636;2022-11-20T03:37:38;4.30;99.90
59651;DHT22;45954;49.768;8.636;2022-11-20T03:40:05;4.30;99.90
59651;DHT22;45954;49.768;8.636;2022-11-20T03:42:31;4.50;99.90
59651;DHT22;45954;49.768;8.636;2022-11-20T03:45:16;4.70;99.90
59651;DHT22;45954;49.768;8.636;2022-11-20T03:47:44;4.80;99.90
59651;DHT22;45954;49.768;8.636;2022-11-20T03:50:12;4.60;99.90
59651;DHT22;45954;49.768;8.636;2022-11-20T03:52:39;4.60;99.90
59651;DHT22;45954;49.768;8.636;2022-11-20T03:55:06;4.90;99.90
59651;DHT22;45954;49.768;8.636;2022-11-20T03:57:32;4.80;99.90
59651;DHT22;45954;49.768;8.636;2022-11-20T03:59:58;4.80;99.90
59651;DHT22;45954;49.768;8.636;2022-11-20T04:02:24;4.60;99.90
59651;DHT22;45954;49.768;8.636;2022-11-20T04:04:50;4.40;99.90
59651;DHT22;45954;49.768;8.636;2022-11-20T04:07:16;4.60;99.90
59651;DHT22;45954;49.768;8.636;2022-11-20T04:09:42;4.70;99.90
59651;DHT22;45954;49.768;8.636;2022-11-20T04:12:08;4.90;99.90
59651;DHT22;45954;49.768;8.636;2022-11-20T04:14:33;5.20;99.90
59651;DHT22;45954;49.768;8.636;2022-11-20T04:16:59;5.20;99.90
59651;DHT22;45954;49.768;8.636;2022-11-20T04:19:25;5.00;99.90
59651;DHT22;45954;49.768;8.636;2022-11-20T04:21:51;5.00;99.90
59651;DHT22;45954;49.768;8.636;2022-11-20T04:24:17;5.00;99.90
59651;DHT22;45954;49.768;8.636;2022-11-20T04:26:42;5.10;99.90
59651;DHT22;45954;49.768;8.636;2022-11-20T04:29:11;5.00;99.90
59651;DHT22;45954;49.768;8.636;2022-11-20T04:31:37;5.20;99.90
59651;DHT22;45954;49.768;8.636;2022-11-20T04:34:06;5.30;99.90
59651;DHT22;45954;49.768;8.636;2022-11-20T04:36:33;5.40;99.90
59651;DHT22;45954;49.768;8.636;2022-11-20T04:39:04;5.20;99.90
59651;DHT22;45954;49.768;8.636;2022-11-20T04:41:34;5.30;99.90
59651;DHT22;45954;49.768;8.636;2022-11-20T04:44:02;5.00;99.90
59651;DHT22;45954;49.768;8.636;2022-11-20T04:46:41;4.60;99.90
59651;DHT22;45954;49.768;8.636;2022-11-20T04:49:08;4.80;99.90
59651;DHT22;45954;49.768;8.636;2022-11-20T04:51:34;5.10;99.90
59651;DHT22;45954;49.768;8.636;2022-11-20T04:54:01;5.10;99.90
59651;DHT22;45954;49.768;8.636;2022-11-20T04:56:27;5.20;99.90
59651;DHT22;45954;49.768;8.636;2022-11-20T04:58:53;5.30;99.90
59651;DHT22;45954;49.768;8.636;2022-11-20T05:01:22;5.10;99.90
59651;DHT22;45954;49.768;8.636;2022-11-20T05:03:48;4.40;99.90
59651;DHT22;45954;49.768;8.636;2022-11-20T05:06:21;4.20;99.90
59651;DHT22;45954;49.768;8.636;2022-11-20T05:08:48;4.40;99.90
59651;DHT22;45954;49.768;8.636;2022-11-20T05:11:17;4.40;99.90
59651;DHT22;45954;49.768;8.636;2022-11-20T05:13:45;4.60;99.90
59651;DHT22;45954;49.768;8.636;2022-11-20T05:16:14;4.70;99.90
59651;DHT22;45954;49.768;8.636;2022-11-20T05:18:41;4.90;99.90
59651;DHT22;45954;49.768;8.636;2022-11-20T05:21:08;5.00;99.90
59651;DHT22;45954;49.768;8.636;2022-11-20T05:23:35;5.10;99.90
59651;DHT22;45954;49.768;8.636;2022-11-20T05:26:02;5.00;99.90
59651;DHT22;45954;49.768;8.636;2022-11-20T05:28:30;5.00;99.90
59651;DHT22;45954;49.768;8.636;2022-11-20T05:31:03;5.10;99.90
59651;DHT22;45954;49.768;8.636;2022-11-20T05:33:30;5.30;99.90
59651;DHT22;45954;49.768;8.636;2022-11-20T05:35:58;5.40;99.90
59651;DHT22;45954;49.768;8.636;2022-11-20T05:38:24;5.40;99.90
59651;DHT22;45954;49.768;8.636;2022-11-20T05:40:50;5.30;99.90
59651;DHT22;45954;49.768;8.636;2022-11-20T05:43:15;5.10;99.90
59651;DHT22;45954;49.768;8.636;2022-11-20T05:45:41;4.90;99.90
59651;DHT22;45954;49.768;8.636;2022-11-20T05:48:07;4.40;99.90
59651;DHT22;45954;49.768;8.636;2022-11-20T05:50:33;4.30;99.90
59651;DHT22;45954;49.768;8.636;2022-11-20T05:52:59;4.50;99.90
59651;DHT22;45954;49.768;8.636;2022-11-20T05:55:26;4.50;99.90
59651;DHT22;45954;49.768;8.636;2022-11-20T05:57:55;4.40;99.90
59651;DHT22;45954;49.768;8.636;2022-11-20T06:00:21;4.60;99.90
59651;DHT22;45954;49.768;8.636;2022-11-20T06:02:48;4.80;99.90
59651;DHT22;45954;49.768;8.636;2022-11-20T06:05:13;4.70;99.90
59651;DHT22;45954;49.768;8.636;2022-11-20T06:07:39;4.90;99.90
59651;DHT22;45954;49.768;8.636;2022-11-20T06:10:05;5.10;99.90
59651;DHT22;45954;49.768;8.636;2022-11-20T06:12:32;5.30;99.90
59651;DHT22;45954;49.768;8.636;2022-11-20T06:14:58;5.40;99.90
59651;DHT22;45954;49.768;8.636;2022-11-20T06:17:25;5.50;99.90
59651;DHT22;45954;49.768;8.636;2022-11-20T06:19:51;5.50;99.90
59651;DHT22;45954;49.768;8.636;2022-11-20T06:22:16;5.40;99.90
59651;DHT22;45954;49.768;8.636;2022-11-20T06:24:42;4.90;99.90
59651;DHT22;45954;49.768;8.636;2022-11-20T06:27:08;4.60;99.90
59651;DHT22;45954;49.768;8.636;2022-11-20T06:29:34;4.50;99.90
59651;DHT22;45954;49.768;8.636;2022-11-20T06:32:00;4.80;99.90
59651;DHT22;45954;49.768;8.636;2022-11-20T06:34:26;4.60;99.90
59651;DHT22;45954;49.768;8.636;2022-11-20T06:36:52;4.40;99.90
59651;DHT22;45954;49.768;8.636;2022-11-20T06:39:18;4.40;99.90
59651;DHT22;45954;49.768;8.636;2022-11-20T06:41:44;4.40;99.90
59651;DHT22;45954;49.768;8.636;2022-11-20T06:44:10;4.50;99.90
59651;DHT22;45954;49.768;8.636;2022-11-20T06:46:35;4.50;99.90
59651;DHT22;45954;49.768;8.636;2022-11-20T06:49:01;4.70;99.90
59651;DHT22;45954;49.768;8.636;2022-11-20T06:51:28;5.00;99.90
59651;DHT22;45954;49.768;8.636;2022-11-20T06:53:53;5.20;99.90
59651;DHT22;45954;49.768;8.636;2022-11-20T06:56:20;5.30;99.90
59651;DHT22;45954;49.768;8.636;2022-11-20T06:58:45;5.30;99.90
59651;DHT22;45954;49.768;8.636;2022-11-20T07:01:13;5.00;99.90
59651;DHT22;45954;49.768;8.636;2022-11-20T07:03:40;5.00;99.90
59651;DHT22;45954;49.768;8.636;2022-11-20T07:06:07;5.20;99.90
59651;DHT22;45954;49.768;8.636;2022-11-20T07:08:34;4.90;99.90
59651;DHT22;45954;49.768;8.636;2022-11-20T07:11:03;4.70;99.90
59651;DHT22;45954;49.768;8.636;2022-11-20T07:13:31;4.70;99.90
59651;DHT22;45954;49.768;8.636;2022-11-20T07:16:02;4.60;99.90
59651;DHT22;45954;49.768;8.636;2022-11-20T07:18:29;4.70;99.90
59651;DHT22;45954;49.768;8.636;2022-11-20T07:20:55;4.90;99.90
59651;DHT22;45954;49.768;8.636;2022-11-20T07:23:21;4.90;99.90
59651;DHT22;45954;49.768;8.636;2022-11-20T07:25:47;4.70;99.90
59651;DHT22;45954;49.768;8.636;2022-11-20T07:28:13;4.60;99.90
59651;DHT22;45954;49.768;8.636;2022-11-20T07:30:39;4.70;99.90
59651;DHT22;45954;49.768;8.636;2022-11-20T07:33:05;4.80;99.90
59651;DHT22;45954;49.768;8.636;2022-11-20T07:35:31;5.00;99.90
59651;DHT22;45954;49.768;8.636;2022-11-20T07:37:56;4.80;99.90
59651;DHT22;45954;49.768;8.636;2022-11-20T07:40:22;4.80;99.90
59651;DHT22;45954;49.768;8.636;2022-11-20T07:42:53;4.90;99.90
59651;DHT22;45954;49.768;8.636;2022-11-20T07:45:21;4.70;99.90
59651;DHT22;45954;49.768;8.636;2022-11-20T07:47:48;4.60;99.90
59651;DHT22;45954;49.768;8.636;2022-11-20T07:50:15;4.50;99.90
59651;DHT22;45954;49.768;8.636;2022-11-20T07:52:42;4.70;99.90
59651;DHT22;45954;49.768;8.636;2022-11-20T07:55:09;4.80;99.90
59651;DHT22;45954;49.768;8.636;2022-11-20T07:57:35;4.90;99.90
59651;DHT22;45954;49.768;8.636;2022-11-20T08:00:03;5.00;99.90
59651;DHT22;45954;49.768;8.636;2022-11-20T08:02:30;5.10;99.90
59651;DHT22;45954;49.768;8.636;2022-11-20T08:04:56;5.00;99.90
59651;DHT22;45954;49.768;8.636;2022-11-20T08:07:22;4.90;99.90
59651;DHT22;45954;49.768;8.636;2022-11-20T08:09:47;4.70;99.90
59651;DHT22;45954;49.768;8.636;2022-11-20T08:12:19;4.50;99.90
59651;DHT22;45954;49.768;8.636;2022-11-20T08:15:05;4.50;99.90
59651;DHT22;45954;49.768;8.636;2022-11-20T08:17:31;4.70;99.90
59651;DHT22;45954;49.768;8.636;2022-11-20T08:19:57;5.00;99.90
59651;DHT22;45954;49.768;8.636;2022-11-20T08:22:23;4.90;99.90
59651;DHT22;45954;49.768;8.636;2022-11-20T08:24:50;5.00;99.90
59651;DHT22;45954;49.768;8.636;2022-11-20T08:27:16;5.00;99.90
59651;DHT22;45954;49.768;8.636;2022-11-20T08:29:42;5.10;99.90
59651;DHT22;45954;49.768;8.636;2022-11-20T08:32:08;5.20;99.90
59651;DHT22;45954;49.768;8.636;2022-11-20T08:34:34;5.20;99.90
59651;DHT22;45954;49.768;8.636;2022-11-20T08:37:02;5.10;99.90
59651;DHT22;45954;49.768;8.636;2022-11-20T08:39:28;5.10;99.90
59651;DHT22;45954;49.768;8.636;2022-11-20T08:41:54;5.10;99.90
59651;DHT22;45954;49.768;8.636;2022-11-20T08:44:19;5.20;99.90
59651;DHT22;45954;49.768;8.636;2022-11-20T08:46:45;5.10;99.90
59651;DHT22;45954;49.768;8.636;2022-11-20T08:49:14;5.20;99.90
59651;DHT22;45954;49.768;8.636;2022-11-20T08:51:41;5.30;99.90
59651;DHT22;45954;49.768;8.636;2022-11-20T08:54:08;5.50;99.90
59651;DHT22;45954;49.768;8.636;2022-11-20T08:56:34;5.30;99.90
59651;DHT22;45954;49.768;8.636;2022-11-20T08:59:00;5.00;99.90
59651;DHT22;45954;49.768;8.636;2022-11-20T09:01:27;5.30;99.90
59651;DHT22;45954;49.768;8.636;2022-11-20T09:03:58;5.60;99.90
59651;DHT22;45954;49.768;8.636;2022-11-20T09:06:25;5.80;99.90
59651;DHT22;45954;49.768;8.636;2022-11-20T09:08:52;5.90;99.90
59651;DHT22;45954;49.768;8.636;2022-11-20T09:11:18;5.90;99.90
59651;DHT22;45954;49.768;8.636;2022-11-20T09:13:44;5.90;99.90
59651;DHT22;45954;49.768;8.636;2022-11-20T09:16:10;5.90;99.90
59651;DHT22;45954;49.768;8.636;2022-11-20T09:18:37;5.90;99.90
59651;DHT22;45954;49.768;8.636;2022-11-20T09:21:06;6.00;99.90
59651;DHT22;45954;49.768;8.636;2022-11-20T09:23:37;6.00;99.90
59651;DHT22;45954;49.768;8.636;2022-11-20T09:26:13;6.00;99.90
59651;DHT22;45954;49.768;8.636;2022-11-20T09:28:39;6.10;99.90
59651;DHT22;45954;49.768;8.636;2022-11-20T09:31:06;6.00;99.90
59651;DHT22;45954;49.768;8.636;2022-11-20T09:33:43;5.60;99.90
59651;DHT22;45954;49.768;8.636;2022-11-20T09:36:08;5.50;99.90
59651;DHT22;45954;49.768;8.636;2022-11-20T09:38:34;5.40;99.90
59651;DHT22;45954;49.768;8.636;2022-11-20T09:41:04;5.40;99.90
59651;DHT22;45954;49.768;8.636;2022-11-20T09:47:06;5.60;99.90
59651;DHT22;45954;49.768;8.636;2022-11-20T09:53:04;5.70;99.90
59651;DHT22;45954;49.768;8.636;2022-11-20T09:55:39;5.80;99.90
59651;DHT22;45954;49.768;8.636;2022-11-20T09:58:07;5.80;99.90
59651;DHT22;45954;49.768;8.636;2022-11-20T10:00:42;5.60;99.90
59651;DHT22;45954;49.768;8.636;2022-11-20T10:03:16;5.50;99.90
59651;DHT22;45954;49.768;8.636;2022-11-20T10:05:57;5.60;99.90
59651;DHT22;45954;49.768;8.636;2022-11-20T10:08:43;5.40;99.90
59651;DHT22;45954;49.768;8.636;2022-11-20T10:11:24;5.40;99.90
59651;DHT22;45954;49.768;8.636;2022-11-20T10:17:17;5.40;99.90
59651;DHT22;45954;49.768;8.636;2022-11-20T10:19:59;5.50;99.90
59651;DHT22;45954;49.768;8.636;2022-11-20T10:22:59;5.40;99.90
59651;DHT22;45954;49.768;8.636;2022-11-20T10:25:43;5.70;99.90
59651;DHT22;45954;49.768;8.636;2022-11-20T10:28:34;5.70;99.90
59651;DHT22;45954;49.768;8.636;2022-11-20T10:31:12;5.70;99.90
59651;DHT22;45954;49.768;8.636;2022-11-20T10:33:48;5.60;99.90
59651;DHT22;45954;49.768;8.636;2022-11-20T10:36:28;5.70;99.90
59651;DHT22;45954;49.768;8.636;2022-11-20T10:42:13;5.60;99.90
59651;DHT22;45954;49.768;8.636;2022-11-20T10:44:52;5.70;99.90
59651;DHT22;45954;49.768;8.636;2022-11-20T10:47:29;6.00;99.90
59651;DHT22;45954;49.768;8.636;2022-11-20T10:50:02;6.00;99.90
59651;DHT22;45954;49.768;8.636;2022-11-20T10:52:49;6.20;99.90
59651;DHT22;45954;49.768;8.636;2022-11-20T10:58:34;6.40;99.90
59651;DHT22;45954;49.768;8.636;2022-11-20T11:01:19;6.50;99.90
59651;DHT22;45954;49.768;8.636;2022-11-20T11:03:50;6.50;99.90
59651;DHT22;45954;49.768;8.636;2022-11-20T11:06:32;6.30;99.90
59651;DHT22;45954;49.768;8.636;2022-11-20T11:09:11;6.20;99.90
59651;DHT22;45954;49.768;8.636;2022-11-20T11:11:42;6.20;99.90
59651;DHT22;45954;49.768;8.636;2022-11-20T11:14:13;5.90;99.90
59651;DHT22;45954;49.768;8.636;2022-11-20T11:16:54;5.80;99.90
59651;DHT22;45954;49.768;8.636;2022-11-20T11:19:21;5.70;99.90
59651;DHT22;45954;49.768;8.636;2022-11-20T11:21:55;5.90;99.90
59651;DHT22;45954;49.768;8.636;2022-11-20T11:27:00;6.20;99.90
59651;DHT22;45954;49.768;8.636;2022-11-20T11:29:32;6.00;99.90
59651;DHT22;45954;49.768;8.636;2022-11-20T11:32:15;6.00;99.90
59651;DHT22;45954;49.768;8.636;2022-11-20T11:34:44;6.10;99.90
59651;DHT22;45954;49.768;8.636;2022-11-20T11:37:18;6.20;99.90
59651;DHT22;45954;49.768;8.636;2022-11-20T11:39:48;6.30;99.90
59651;DHT22;45954;49.768;8.636;2022-11-20T11:42:18;6.40;99.90
59651;DHT22;45954;49.768;8.636;2022-11-20T11:44:47;6.50;99.90
59651;DHT22;45954;49.768;8.636;2022-11-20T11:47:45;6.40;99.90
59651;DHT22;45954;49.768;8.636;2022-11-20T11:50:25;6.40;99.90
59651;DHT22;45954;49.768;8.636;2022-11-20T11:53:12;6.40;99.90
59651;DHT22;45954;49.768;8.636;2022-11-20T11:55:56;6.40;99.90
59651;DHT22;45954;49.768;8.636;2022-11-20T11:58:47;6.40;99.90
59651;DHT22;45954;49.768;8.636;2022-11-20T12:01:35;6.10;99.90
59651;DHT22;45954;49.768;8.636;2022-11-20T12:07:06;6.50;99.90
59651;DHT22;45954;49.768;8.636;2022-11-20T12:09:58;6.80;99.90
59651;DHT22;45954;49.768;8.636;2022-11-20T12:12:40;6.90;99.90
59651;DHT22;45954;49.768;8.636;2022-11-20T12:15:13;6.70;99.90
59651;DHT22;45954;49.768;8.636;2022-11-20T12:17:46;6.90;99.90
59651;DHT22;45954;49.768;8.636;2022-11-20T12:20:14;6.80;99.90
59651;DHT22;45954;49.768;8.636;2022-11-20T12:25:33;7.00;99.90
59651;DHT22;45954;49.768;8.636;2022-11-20T12:31:10;7.00;99.90
59651;DHT22;45954;49.768;8.636;2022-11-20T12:39:49;7.40;99.90
59651;DHT22;45954;49.768;8.636;2022-11-20T12:42:27;7.60;99.90
59651;DHT22;45954;49.768;8.636;2022-11-20T12:54:22;7.70;99.90
59651;DHT22;45954;49.768;8.636;2022-11-20T13:06:16;7.90;99.90
59651;DHT22;45954;49.768;8.636;2022-11-20T13:08:54;7.90;99.90
59651;DHT22;45954;49.768;8.636;2022-11-20T13:11:32;8.00;99.90
59651;DHT22;45954;49.768;8.636;2022-11-20T13:14:26;8.10;99.90
59651;DHT22;45954;49.768;8.636;2022-11-20T13:19:56;8.40;99.90
59651;DHT22;45954;49.768;8.636;2022-11-20T13:22:28;8.50;99.90
59651;DHT22;45954;49.768;8.636;2022-11-20T13:25:10;8.40;99.90
59651;DHT22;45954;49.768;8.636;2022-11-20T13:27:47;8.30;99.90
59651;DHT22;45954;49.768;8.636;2022-11-20T13:32:53;8.10;99.90
59651;DHT22;45954;49.768;8.636;2022-11-20T13:38:08;8.10;99.90
59651;DHT22;45954;49.768;8.636;2022-11-20T13:40:56;8.30;99.90
59651;DHT22;45954;49.768;8.636;2022-11-20T13:45:57;8.40;99.90
59651;DHT22;45954;49.768;8.636;2022-11-20T13:48:40;8.20;99.90
59651;DHT22;45954;49.768;8.636;2022-11-20T13:51:33;8.10;99.90
59651;DHT22;45954;49.768;8.636;2022-11-20T13:59:57;8.10;99.90
59651;DHT22;45954;49.768;8.636;2022-11-20T14:02:30;8.30;99.90
59651;DHT22;45954;49.768;8.636;2022-11-20T14:05:01;8.20;99.90
59651;DHT22;45954;49.768;8.636;2022-11-20T14:07:37;8.40;99.90
59651;DHT22;45954;49.768;8.636;2022-11-20T14:10:05;8.30;99.90
59651;DHT22;45954;49.768;8.636;2022-11-20T14:12:33;8.40;99.90
59651;DHT22;45954;49.768;8.636;2022-11-20T14:14:59;8.40;99.90
59651;DHT22;45954;49.768;8.636;2022-11-20T14:17:32;8.40;99.90
59651;DHT22;45954;49.768;8.636;2022-11-20T14:20:06;8.50;99.90
59651;DHT22;45954;49.768;8.636;2022-11-20T14:22:37;8.50;99.90
59651;DHT22;45954;49.768;8.636;2022-11-20T14:27:55;8.50;99.90
59651;DHT22;45954;49.768;8.636;2022-11-20T14:30:27;8.50;99.90
59651;DHT22;45954;49.768;8.636;2022-11-20T14:33:05;8.30;99.90
59651;DHT22;45954;49.768;8.636;2022-11-20T14:35:36;8.50;99.90
59651;DHT22;45954;49.768;8.636;2022-11-20T14:38:18;8.40;99.90
59651;DHT22;45954;49.768;8.636;2022-11-20T14:40:47;8.50;99.90
59651;DHT22;45954;49.768;8.636;2022-11-20T14:43:27;8.40;99.90
59651;DHT22;45954;49.768;8.636;2022-11-20T14:46:00;8.30;99.90
59651;DHT22;45954;49.768;8.636;2022-11-20T14:48:48;8.30;99.90
59651;DHT22;45954;49.768;8.636;2022-11-20T14:51:34;8.40;99.90
59651;DHT22;45954;49.768;8.636;2022-11-20T14:54:17;8.30;99.90
59651;DHT22;45954;49.768;8.636;2022-11-20T14:57:01;8.30;99.90
59651;DHT22;45954;49.768;8.636;2022-11-20T14:59:31;8.30;99.90
59651;DHT22;45954;49.768;8.636;2022-11-20T15:02:02;8.20;99.90
59651;DHT22;45954;49.768;8.636;2022-11-20T15:04:29;8.10;99.90
59651;DHT22;45954;49.768;8.636;2022-11-20T15:06:58;8.00;99.90
59651;DHT22;45954;49.768;8.636;2022-11-20T15:09:24;8.10;99.90
59651;DHT22;45954;49.768;8.636;2022-11-20T15:12:00;8.10;99.90
59651;DHT22;45954;49.768;8.636;2022-11-20T15:14:28;7.90;99.90
59651;DHT22;45954;49.768;8.636;2022-11-20T15:16:56;8.10;99.90
59651;DHT22;45954;49.768;8.636;2022-11-20T15:19:24;8.20;99.90
59651;DHT22;45954;49.768;8.636;2022-11-20T15:21:52;8.20;99.90
59651;DHT22;45954;49.768;8.636;2022-11-20T15:24:19;8.10;99.90
59651;DHT22;45954;49.768;8.636;2022-11-20T15:26:45;8.10;99.90
59651;DHT22;45954;49.768;8.636;2022-11-20T15:29:14;8.10;99.90
59651;DHT22;45954;49.768;8.636;2022-11-20T15:31:44;8.20;99.90
59651;DHT22;45954;49.768;8.636;2022-11-20T15:34:12;8.10;99.90
59651;DHT22;45954;49.768;8.636;2022-11-20T15:36:39;8.10;99.90
59651;DHT22;45954;49.768;8.636;2022-11-20T15:39:06;8.00;99.90
59651;DHT22;45954;49.768;8.636;2022-11-20T15:41:36;8.00;99.90
59651;DHT22;45954;49.768;8.636;2022-11-20T15:44:03;8.10;99.90
59651;DHT22;45954;49.768;8.636;2022-11-20T15:46:37;8.20;99.90
59651;DHT22;45954;49.768;8.636;2022-11-20T15:49:06;8.20;99.90
59651;DHT22;45954;49.768;8.636;2022-11-20T15:51:39;8.10;99.90
59651;DHT22;45954;49.768;8.636;2022-11-20T15:54:21;8.10;99.90
59651;DHT22;45954;49.768;8.636;2022-11-20T15:56:48;7.90;99.90
59651;DHT22;45954;49.768;8.636;2022-11-20T15:59:18;8.00;99.90
59651;DHT22;45954;49.768;8.636;2022-11-20T16:01:44;8.10;99.90
59651;DHT22;45954;49.768;8.636;2022-11-20T16:04:13;8.00;99.90
59651;DHT22;45954;49.768;8.636;2022-11-20T16:06:40;8.00;99.90
59651;DHT22;45954;49.768;8.636;2022-11-20T16:09:07;8.00;99.90
59651;DHT22;45954;49.768;8.636;2022-11-20T16:11:34;8.00;99.90
59651;DHT22;45954;49.768;8.636;2022-11-20T16:14:03;8.00;99.90
59651;DHT22;45954;49.768;8.636;2022-11-20T16:16:48;8.10;99.90
59651;DHT22;45954;49.768;8.636;2022-11-20T16:19:15;8.00;99.90
59651;DHT22;45954;49.768;8.636;2022-11-20T16:21:42;8.00;99.90
59651;DHT22;45954;49.768;8.636;2022-11-20T16:24:10;8.00;99.90
59651;DHT22;45954;49.768;8.636;2022-11-20T16:26:38;8.00;99.90
59651;DHT22;45954;49.768;8.636;2022-11-20T16:29:06;8.00;99.90
59651;DHT22;45954;49.768;8.636;2022-11-20T16:31:32;8.00;99.90
59651;DHT22;45954;49.768;8.636;2022-11-20T16:34:02;8.00;99.90
59651;DHT22;45954;49.768;8.636;2022-11-20T16:36:29;8.00;99.90
59651;DHT22;45954;49.768;8.636;2022-11-20T16:38:59;8.00;99.90
59651;DHT22;45954;49.768;8.636;2022-11-20T16:41:27;8.00;99.90
59651;DHT22;45954;49.768;8.636;2022-11-20T16:43:58;8.10;99.90
59651;DHT22;45954;49.768;8.636;2022-11-20T16:46:31;8.20;99.90
59651;DHT22;45954;49.768;8.636;2022-11-20T16:49:04;8.20;99.90
59651;DHT22;45954;49.768;8.636;2022-11-20T16:51:34;8.20;99.90
59651;DHT22;45954;49.768;8.636;2022-11-20T16:54:05;8.30;99.90
59651;DHT22;45954;49.768;8.636;2022-11-20T16:56:32;8.40;99.90
59651;DHT22;45954;49.768;8.636;2022-11-20T16:59:00;8.30;99.90
59651;DHT22;45954;49.768;8.636;2022-11-20T17:01:28;8.40;99.90
59651;DHT22;45954;49.768;8.636;2022-11-20T17:03:59;8.40;99.90
59651;DHT22;45954;49.768;8.636;2022-11-20T17:06:32;8.30;99.90
59651;DHT22;45954;49.768;8.636;2022-11-20T17:08:59;8.30;99.90
59651;DHT22;45954;49.768;8.636;2022-11-20T17:11:27;8.20;99.90
59651;DHT22;45954;49.768;8.636;2022-11-20T17:13:55;8.20;99.90
59651;DHT22;45954;49.768;8.636;2022-11-20T17:16:23;8.10;99.90
59651;DHT22;45954;49.768;8.636;2022-11-20T17:18:49;8.10;99.90
59651;DHT22;45954;49.768;8.636;2022-11-20T17:21:17;8.10;99.90
59651;DHT22;45954;49.768;8.636;2022-11-20T17:23:45;8.10;99.90